Terminal Aerodrome Forecast
Issued by NWS

Home | Current Version | Previous Version | Text Only | Print | Product List | Glossary On
Versions: 1 2 3 4 5 6 7 8 9 10 11 12 13 14 15 16 17 18 19 20 21
000
FTUS42 KFFC 310337 AAB
TAFPDK
TAF AMD
KPDK 310337Z 3104/3124 08008KT P6SM BKN015
     FM311000 08007KT 6SM BR BKN008
     FM311400 08005KT P6SM BKN012
     FM311600 07006KT P6SM BKN020
     FM311800 06006KT P6SM SCT025 SCT250=

USA.gov is the U.S. government's official web portal to all federal, state and local government web resources and services.